createdAt,value
2023-04-02T08:38:14.612Z,33.10
2023-04-02T08:41:27.747Z,33.80
2023-04-02T08:44:45.534Z,34.00
2023-04-02T08:47:53.522Z,34.10
2023-04-02T08:51:01.441Z,34.10
2023-04-02T08:54:17.400Z,34.60
2023-04-02T08:57:31.263Z,34.40
2023-04-02T09:00:40.900Z,34.20
2023-04-02T09:03:49.388Z,35.50
2023-04-02T09:06:57.686Z,36.50
2023-04-02T09:10:07.433Z,37.00
2023-04-02T09:13:18.051Z,36.60
2023-04-02T09:16:36.964Z,36.20
2023-04-02T09:19:46.042Z,35.70
2023-04-02T09:22:54.234Z,35.70
2023-04-02T09:26:04.980Z,34.70
2023-04-02T09:29:36.633Z,31.30
2023-04-02T09:32:49.074Z,33.10
2023-04-02T09:35:57.981Z,34.50
2023-04-02T09:39:08.197Z,33.70
2023-04-02T09:42:31.664Z,33.60
2023-04-02T09:45:39.596Z,33.50
2023-04-02T09:48:53.257Z,34.10
2023-04-02T09:52:21.961Z,33.40
2023-04-02T09:55:31.184Z,33.50
2023-04-02T09:58:40.656Z,33.50
2023-04-02T10:01:49.159Z,33.40
2023-04-02T10:04:57.167Z,33.40
2023-04-02T10:08:10.531Z,33.50
2023-04-02T10:11:19.873Z,33.50
2023-04-02T10:14:30.113Z,33.60
2023-04-02T10:17:38.282Z,33.50
2023-04-02T10:20:51.400Z,33.40
2023-04-02T10:24:00.219Z,33.30
2023-04-02T10:27:17.741Z,33.40
2023-04-02T10:30:27.620Z,33.30
2023-04-02T10:33:38.420Z,33.40
2023-04-02T10:36:50.540Z,33.40
2023-04-02T10:39:59.523Z,33.40
2023-04-02T10:43:33.819Z,33.50
2023-04-02T10:46:46.502Z,33.40
2023-04-02T10:49:56.676Z,33.40
2023-04-02T10:53:10.173Z,33.30
2023-04-02T10:56:18.270Z,33.30
2023-04-02T10:59:28.528Z,33.30
2023-04-02T11:02:40.478Z,33.30
2023-04-02T11:05:48.904Z,33.30
2023-04-02T11:08:58.160Z,33.40
2023-04-02T11:12:06.831Z,33.40
2023-04-02T11:15:16.380Z,33.00
2023-04-02T11:18:28.760Z,33.50
2023-04-02T11:21:54.978Z,33.60
2023-04-02T11:25:18.708Z,33.70
2023-04-02T11:28:28.224Z,33.70
2023-04-02T11:31:36.291Z,33.90
2023-04-02T11:35:23.042Z,33.80
2023-04-02T11:38:52.218Z,33.80
2023-04-02T11:42:06.462Z,33.80
2023-04-02T11:45:53.452Z,33.80
2023-04-02T11:49:35.836Z,33.60
2023-04-02T11:53:03.681Z,33.40
2023-04-02T11:56:19.901Z,33.40
2023-04-02T11:59:30.433Z,33.40
2023-04-02T12:02:40.215Z,33.40
2023-04-02T12:05:50.838Z,33.50
2023-04-02T12:09:05.942Z,30.90
2023-04-02T12:12:18.793Z,27.10
2023-04-02T12:15:44.131Z,26.20
2023-04-02T12:18:53.997Z,26.40
2023-04-02T12:22:07.445Z,27.50
2023-04-02T12:25:24.658Z,28.30
2023-04-02T12:28:38.468Z,28.20
2023-04-02T12:31:47.700Z,28.30
2023-04-02T12:34:56.132Z,28.30
2023-04-02T12:38:04.025Z,28.80
2023-04-02T12:41:25.072Z,29.10
2023-04-02T12:44:39.032Z,29.40
2023-04-02T12:47:48.252Z,29.50
2023-04-02T12:50:58.455Z,29.70
2023-04-02T12:54:07.105Z,29.80
2023-04-02T12:57:34.015Z,30.00
2023-04-02T13:00:41.976Z,30.60
2023-04-02T13:04:01.548Z,30.60
2023-04-02T13:07:19.293Z,30.80
2023-04-02T13:10:27.976Z,30.90
2023-04-02T13:13:38.291Z,31.10
2023-04-02T13:16:46.452Z,31.20
2023-04-02T13:19:54.322Z,31.30
2023-04-02T13:23:03.326Z,31.50
2023-04-02T13:26:16.139Z,31.60
2023-04-02T13:29:29.631Z,31.70
2023-04-02T13:32:38.055Z,31.80
2023-04-02T13:35:46.172Z,31.90
2023-04-02T13:38:53.959Z,32.00
2023-04-02T13:42:02.676Z,32.10
2023-04-02T13:45:19.379Z,32.10
2023-04-02T13:48:28.773Z,32.20
2023-04-02T13:51:38.651Z,32.30
2023-04-02T13:54:48.851Z,32.40
2023-04-02T13:57:56.686Z,32.40
2023-04-02T14:01:06.915Z,32.50
2023-04-02T14:04:17.677Z,32.60
2023-04-02T14:07:33.105Z,32.70
2023-04-02T14:10:56.842Z,32.70
2023-04-02T14:14:35.586Z,32.80
2023-04-02T14:17:50.712Z,32.90
2023-04-02T14:21:04.377Z,33.10
2023-04-02T14:24:18.975Z,33.20
2023-04-02T14:27:31.861Z,33.20
2023-04-02T14:30:45.403Z,33.30
2023-04-02T14:33:58.587Z,33.30
2023-04-02T14:37:13.169Z,33.90
2023-04-02T14:40:24.274Z,33.40
2023-04-02T14:43:33.721Z,33.30
2023-04-02T14:46:41.932Z,33.30
2023-04-02T14:49:54.583Z,32.80
2023-04-02T14:53:05.029Z,33.00
2023-04-02T14:56:13.412Z,33.10
2023-04-02T14:59:25.109Z,33.60
2023-04-02T15:02:40.250Z,33.80
2023-04-02T15:05:50.058Z,34.10
2023-04-02T15:09:08.933Z,34.30
2023-04-02T15:12:20.438Z,34.50
2023-04-02T15:15:40.525Z,34.80
2023-04-02T15:18:51.615Z,35.30
2023-04-02T15:22:09.292Z,35.60
2023-04-02T15:25:21.709Z,35.70
2023-04-02T15:28:31.206Z,36.00
2023-04-02T15:31:39.220Z,36.10
2023-04-02T15:34:48.572Z,36.00
2023-04-02T15:38:01.202Z,35.70
2023-04-02T15:41:09.963Z,35.60
2023-04-02T15:44:18.031Z,35.80
2023-04-02T15:47:29.282Z,35.60
2023-04-02T15:50:52.907Z,35.50
2023-04-02T15:54:04.598Z,35.40
2023-04-02T15:57:19.298Z,35.90
2023-04-02T16:00:27.988Z,35.20
2023-04-02T16:03:50.929Z,35.20
2023-04-02T16:07:04.172Z,35.20
2023-04-02T16:10:18.014Z,35.10
2023-04-02T16:13:31.368Z,35.00
2023-04-02T16:16:39.705Z,34.90
2023-04-02T16:19:50.408Z,34.80
2023-04-02T16:23:01.440Z,34.70
2023-04-02T16:26:18.799Z,34.70
2023-04-02T16:29:47.449Z,34.60
2023-04-02T16:33:08.092Z,34.60
2023-04-02T16:36:22.604Z,34.50
2023-04-02T16:39:36.041Z,34.60
2023-04-02T16:42:48.186Z,34.80
2023-04-02T16:46:00.590Z,34.60
2023-04-02T16:49:15.798Z,34.50
2023-04-02T16:52:30.644Z,34.50
2023-04-02T16:55:44.415Z,34.30
2023-04-02T16:58:56.243Z,34.30
2023-04-02T17:02:10.592Z,34.40
2023-04-02T17:05:26.570Z,34.30
2023-04-02T17:08:38.847Z,34.30
2023-04-02T17:11:49.968Z,34.20
2023-04-02T17:15:00.716Z,34.10
2023-04-02T17:18:13.927Z,34.10
2023-04-02T17:21:23.805Z,34.70
2023-04-02T17:24:33.444Z,34.70
2023-04-02T17:27:43.180Z,34.50
2023-04-02T17:30:54.103Z,34.50
2023-04-02T17:34:02.537Z,34.60
2023-04-02T17:37:17.544Z,34.60
2023-04-02T17:40:27.357Z,34.50
2023-04-02T17:43:40.162Z,34.50
2023-04-02T17:46:52.093Z,34.60
2023-04-02T17:50:26.747Z,34.90
2023-04-02T17:53:44.524Z,34.90
2023-04-02T17:56:59.389Z,35.20
2023-04-02T18:00:17.346Z,35.90
2023-04-02T18:03:44.060Z,36.30
2023-04-02T18:06:55.647Z,36.00
2023-04-02T18:10:07.864Z,36.00
2023-04-02T18:13:19.923Z,36.20
2023-04-02T18:16:35.301Z,36.40
2023-04-02T18:19:47.987Z,36.90
2023-04-02T18:22:59.299Z,37.00
2023-04-02T18:26:10.234Z,37.00
2023-04-02T18:29:24.353Z,37.50
2023-04-02T18:32:43.400Z,36.80
2023-04-02T18:35:56.276Z,36.70
2023-04-02T18:39:07.185Z,36.70
2023-04-02T18:42:18.266Z,37.00
2023-04-02T18:45:29.203Z,36.80
2023-04-02T18:48:41.819Z,36.50
2023-04-02T18:51:53.376Z,36.50
2023-04-02T18:55:02.640Z,36.30
2023-04-02T18:58:15.996Z,36.20
2023-04-02T19:01:27.888Z,36.00
2023-04-02T19:04:36.182Z,36.00
2023-04-02T19:07:46.585Z,35.90
2023-04-02T19:10:55.499Z,35.90
2023-04-02T19:14:05.688Z,35.80
2023-04-02T19:17:14.844Z,35.80
2023-04-02T19:20:29.864Z,35.70
2023-04-02T19:23:49.112Z,35.60
2023-04-02T19:26:59.818Z,35.60
2023-04-02T19:30:31.537Z,35.50
2023-04-02T19:33:42.811Z,35.40
2023-04-02T19:36:53.730Z,35.30
2023-04-02T19:40:27.078Z,35.30
2023-04-02T19:43:35.081Z,35.40
2023-04-02T19:46:42.977Z,35.70
2023-04-02T19:49:50.791Z,35.80
2023-04-02T19:52:58.899Z,36.00
2023-04-02T19:56:08.325Z,36.00
2023-04-02T19:59:18.555Z,36.00
2023-04-02T20:02:27.031Z,36.20
2023-04-02T20:05:35.022Z,36.20
2023-04-02T20:08:43.347Z,36.20
2023-04-02T20:11:52.815Z,36.40
2023-04-02T20:15:01.186Z,36.40
2023-04-02T20:18:09.343Z,36.50
2023-04-02T20:21:17.544Z,36.50
2023-04-02T20:24:25.450Z,36.50
2023-04-02T20:27:34.935Z,36.50
2023-04-02T20:30:43.500Z,36.60
2023-04-02T20:33:55.237Z,36.50
2023-04-02T20:37:03.528Z,36.50
2023-04-02T20:40:11.931Z,36.60
2023-04-02T20:43:21.596Z,36.60
2023-04-02T20:46:30.240Z,36.50
2023-04-02T20:49:38.514Z,36.50
2023-04-02T20:52:47.106Z,36.50
2023-04-02T20:55:57.852Z,36.40
2023-04-02T20:59:07.361Z,36.40
2023-04-02T21:02:15.527Z,36.50
2023-04-02T21:05:23.563Z,36.50
2023-04-02T21:08:31.503Z,36.70
2023-04-02T21:11:39.446Z,36.50
2023-04-02T21:14:48.969Z,36.50
2023-04-02T21:17:57.293Z,36.40
2023-04-02T21:21:06.669Z,36.20
2023-04-02T21:24:15.169Z,36.20
2023-04-02T21:27:25.821Z,36.10
2023-04-02T21:30:35.311Z,36.00
2023-04-02T21:33:44.365Z,36.00
2023-04-02T21:36:52.472Z,35.90
2023-04-02T21:40:00.569Z,35.80
2023-04-02T21:43:08.576Z,35.70
2023-04-02T21:46:17.981Z,35.70
2023-04-02T21:49:27.174Z,35.60
2023-04-02T21:52:35.075Z,35.50
2023-04-02T21:55:43.098Z,35.50
2023-04-02T21:58:51.600Z,35.40
2023-04-02T22:02:01.089Z,35.40
2023-04-02T22:05:09.339Z,35.30
2023-04-02T22:08:17.396Z,35.30
2023-04-02T22:11:26.536Z,35.20
2023-04-02T22:14:34.669Z,35.20
2023-04-02T22:17:44.139Z,35.20
2023-04-02T22:20:55.021Z,35.10
2023-04-02T22:24:03.327Z,35.20
2023-04-02T22:27:12.687Z,35.10
2023-04-02T22:30:20.512Z,35.00
2023-04-02T22:33:32.251Z,34.90
2023-04-02T22:36:40.271Z,34.90
2023-04-02T22:39:48.310Z,34.80
2023-04-02T22:42:56.217Z,34.80
2023-04-02T22:46:04.484Z,34.80
2023-04-02T22:49:18.938Z,34.80
2023-04-02T22:52:26.993Z,34.60
2023-04-02T22:55:35.188Z,34.60
2023-04-02T22:58:43.429Z,34.60
2023-04-02T23:01:51.525Z,34.60
2023-04-02T23:05:01.010Z,34.50
2023-04-02T23:08:09.083Z,34.50
2023-04-02T23:11:18.048Z,34.50
2023-04-02T23:14:25.860Z,34.50
2023-04-02T23:17:35.954Z,34.40
2023-04-02T23:20:45.381Z,34.40
2023-04-02T23:23:53.562Z,34.30
2023-04-02T23:27:01.623Z,34.30
2023-04-02T23:30:10.294Z,34.30
2023-04-02T23:33:18.030Z,34.20
2023-04-02T23:36:27.954Z,34.20
2023-04-02T23:39:36.133Z,34.10
2023-04-02T23:42:44.208Z,34.10
2023-04-02T23:45:52.495Z,34.10
2023-04-02T23:49:01.058Z,34.00
2023-04-02T23:52:10.258Z,34.00
2023-04-02T23:55:18.590Z,33.90
2023-04-02T23:58:26.768Z,33.90
